Cudahy, California
Current Conditions -  °F | °C
As of 10:47 AM on Sunday 21 Dec 2014 (Local Time) from KCQT Reporting Station
Haze Haze  
Wind Chill: 62°   Ceiling: Unl
Heat Index: 62°   Visibility: 6mi
Dew Point: 50°   Wind: 0mph
Humidity: 65%   Direction: NA
Pressure: 30.13"   Gusts: NA
Location:  33.9704°N, 118.185°W
Report Text: KCQT 211847Z AUTO 00000KT 6SM HZ CLR 17/10 A3013 RMK AO2 SLP204 T01670100
Loading
Personal Weather Stations






























Interactive Weather Map New forecast layout! Learn more

10-Day Weather Forecast

Advertisements
Track Severe Weather on mobile